Terminal Aerodrome Forecast
Issued by NWS

Home | Current Version | Previous Version | Text Only | Print | Product List | Glossary Off
Versions: 1 2 3 4 5 6 7 8 9 10 11 12 13 14 15 16 17 18 19 20

000
FTUS43 KMPX 061720
TAFAXN
TAF
KAXN 061720Z 0618/0718 35014G24KT 2SM HZ BKN020 BKN120
     FM061900 34014G24KT 4SM HZ SCT030 BKN150
     FM062100 34013G21KT P6SM SCT035 BKN150
     FM070100 34008KT P6SM SKC
     FM071600 36005KT P6SM FEW040=

USA.gov is the U.S. government's official web portal to all federal, state and local government web resources and services.